createdAt,value
2018-02-18T00:00:16.451Z,1028.35
2018-02-18T00:01:16.339Z,1028.39
2018-02-18T00:02:16.341Z,1028.32
2018-02-18T00:03:16.334Z,1028.38
2018-02-18T00:04:16.318Z,1028.35
2018-02-18T00:05:16.344Z,1028.37
2018-02-18T00:06:16.317Z,1028.38
2018-02-18T00:07:16.317Z,1028.34
2018-02-18T00:08:16.426Z,1028.39
2018-02-18T00:09:16.351Z,1028.37
2018-02-18T00:10:16.339Z,1028.43
2018-02-18T00:11:16.324Z,1028.4
2018-02-18T00:12:16.339Z,1028.47
2018-02-18T00:13:16.318Z,1028.44
2018-02-18T00:14:16.314Z,1028.43
2018-02-18T00:15:16.322Z,1028.42
2018-02-18T00:16:16.417Z,1028.47
2018-02-18T00:17:16.325Z,1028.49
2018-02-18T00:18:16.326Z,1028.47
2018-02-18T00:19:16.358Z,1028.5
2018-02-18T00:20:16.310Z,1028.5
2018-02-18T00:21:16.322Z,1028.53
2018-02-18T00:22:16.312Z,1028.53
2018-02-18T00:23:16.321Z,1028.54
2018-02-18T00:24:16.364Z,1028.5
2018-02-18T00:25:16.322Z,1028.55
2018-02-18T00:26:16.307Z,1028.55
2018-02-18T00:27:16.313Z,1028.56
2018-02-18T00:28:16.318Z,1028.58
2018-02-18T00:29:16.314Z,1028.62
2018-02-18T00:30:16.320Z,1028.58
2018-02-18T00:31:16.306Z,1028.59
2018-02-18T00:32:16.306Z,1028.57
2018-02-18T00:33:16.324Z,1028.6
2018-02-18T00:34:16.332Z,1028.61
2018-02-18T00:35:16.308Z,1028.62
2018-02-18T00:36:16.338Z,1028.57
2018-02-18T00:37:16.310Z,1028.57
2018-02-18T00:38:16.316Z,1028.58
2018-02-18T00:39:16.325Z,1028.6
2018-02-18T00:40:16.325Z,1028.63
2018-02-18T00:41:16.340Z,1028.64
2018-02-18T00:42:16.312Z,1028.67
2018-02-18T00:43:16.331Z,1028.68
2018-02-18T00:44:16.300Z,1028.67
2018-02-18T00:45:16.317Z,1028.72
2018-02-18T00:46:16.310Z,1028.69
2018-02-18T00:47:16.342Z,1028.7
2018-02-18T00:48:16.304Z,1028.71
2018-02-18T00:49:16.367Z,1028.76
2018-02-18T00:50:16.330Z,1028.76
2018-02-18T00:51:16.303Z,1028.78
2018-02-18T00:52:16.340Z,1028.75
2018-02-18T00:53:16.293Z,1028.77
2018-02-18T00:54:16.318Z,1028.77
2018-02-18T00:55:16.303Z,1028.76
2018-02-18T00:56:16.310Z,1028.78
2018-02-18T00:57:16.298Z,1028.77
2018-02-18T00:58:16.339Z,1028.78
2018-02-18T00:59:16.328Z,1028.76
2018-02-18T01:00:16.303Z,1028.82
2018-02-18T01:01:16.323Z,1028.81
2018-02-18T01:02:16.291Z,1028.78
2018-02-18T01:03:16.311Z,1028.79
2018-02-18T01:04:16.481Z,1028.81
2018-02-18T01:05:16.302Z,1028.79
2018-02-18T01:06:16.309Z,1028.81
2018-02-18T01:07:16.340Z,1028.83
2018-02-18T01:08:16.313Z,1028.81
2018-02-18T01:09:16.328Z,1028.82
2018-02-18T01:10:16.290Z,1028.79
2018-02-18T01:11:16.313Z,1028.8
2018-02-18T01:12:16.293Z,1028.84
2018-02-18T01:13:16.295Z,1028.85
2018-02-18T01:14:16.296Z,1028.82
2018-02-18T01:15:16.309Z,1028.9
2018-02-18T01:16:16.297Z,1028.9
2018-02-18T01:17:16.310Z,1028.97
2018-02-18T01:18:16.314Z,1028.97
2018-02-18T01:19:16.294Z,1029.02
2018-02-18T01:20:16.564Z,1029.03
2018-02-18T01:21:16.395Z,1029
2018-02-18T01:22:16.296Z,1029.03
2018-02-18T01:23:16.263Z,1029.02
2018-02-18T01:24:16.289Z,1029.04
2018-02-18T01:25:16.324Z,1029.06
2018-02-18T01:26:16.307Z,1029.06
2018-02-18T01:27:16.285Z,1029.05
2018-02-18T01:28:16.302Z,1029.06
2018-02-18T01:29:16.295Z,1029.04
2018-02-18T01:30:16.302Z,1029.04
2018-02-18T01:31:16.307Z,1029.01
2018-02-18T01:32:16.320Z,1029.06
2018-02-18T01:33:16.282Z,1029.03
2018-02-18T01:34:16.291Z,1029.04
2018-02-18T01:35:16.308Z,1029.06
2018-02-18T01:36:16.322Z,1029.08
2018-02-18T01:37:16.288Z,1029.09
2018-02-18T01:38:16.297Z,1029.09
2018-02-18T01:39:16.298Z,1029.15
2018-02-18T01:40:16.291Z,1029.13
2018-02-18T01:41:16.332Z,1029.15
2018-02-18T01:42:16.324Z,1029.14
2018-02-18T01:43:16.280Z,1029.14
2018-02-18T01:44:16.307Z,1029.16
2018-02-18T01:45:16.305Z,1029.15
2018-02-18T01:46:16.282Z,1029.14
2018-02-18T01:47:16.291Z,1029.16
2018-02-18T01:48:16.293Z,1029.17
2018-02-18T01:49:16.286Z,1029.17
2018-02-18T01:50:16.281Z,1029.17
2018-02-18T01:51:16.295Z,1029.16
2018-02-18T01:52:16.327Z,1029.17
2018-02-18T01:53:16.284Z,1029.17
2018-02-18T01:54:16.302Z,1029.17
2018-02-18T01:55:16.290Z,1029.17
2018-02-18T01:56:16.288Z,1029.2
2018-02-18T01:57:16.287Z,1029.17
2018-02-18T01:58:16.281Z,1029.19
2018-02-18T01:59:16.278Z,1029.2
2018-02-18T02:00:16.290Z,1029.2
2018-02-18T02:01:16.284Z,1029.21
2018-02-18T02:02:16.339Z,1029.19
2018-02-18T02:03:16.287Z,1029.18
2018-02-18T02:04:16.286Z,1029.17
2018-02-18T02:05:16.280Z,1029.22
2018-02-18T02:06:16.290Z,1029.22
2018-02-18T02:07:16.285Z,1029.2
2018-02-18T02:08:16.273Z,1029.18
2018-02-18T02:09:16.288Z,1029.24
2018-02-18T02:10:16.286Z,1029.24
2018-02-18T02:11:16.275Z,1029.18
2018-02-18T02:12:16.290Z,1029.18
2018-02-18T02:13:16.279Z,1029.2
2018-02-18T02:14:16.287Z,1029.18
2018-02-18T02:15:16.276Z,1029.16
2018-02-18T02:16:16.287Z,1029.15
2018-02-18T02:17:16.298Z,1029.16
2018-02-18T02:18:16.326Z,1029.13
2018-02-18T02:19:16.277Z,1029.13
2018-02-18T02:20:16.292Z,1029.14
2018-02-18T02:21:16.278Z,1029.11
2018-02-18T02:22:16.297Z,1029.13
2018-02-18T02:23:16.288Z,1029.18
2018-02-18T02:24:16.275Z,1029.17
2018-02-18T02:25:16.280Z,1029.19
2018-02-18T02:26:16.277Z,1029.19
2018-02-18T02:27:16.273Z,1029.15
2018-02-18T02:28:16.273Z,1029.16
2018-02-18T02:29:16.275Z,1029.17
2018-02-18T02:30:16.273Z,1029.17
2018-02-18T02:31:16.307Z,1029.19
2018-02-18T02:32:16.280Z,1029.19
2018-02-18T02:33:16.300Z,1029.24
2018-02-18T02:34:16.330Z,1029.21
2018-02-18T02:35:16.278Z,1029.2
2018-02-18T02:36:16.273Z,1029.19
2018-02-18T02:37:16.267Z,1029.21
2018-02-18T02:38:16.274Z,1029.2
2018-02-18T02:39:16.268Z,1029.25
2018-02-18T02:40:16.281Z,1029.23
2018-02-18T02:41:16.280Z,1029.27
2018-02-18T02:42:16.272Z,1029.23
2018-02-18T02:43:16.269Z,1029.26
2018-02-18T02:44:16.297Z,1029.23
2018-02-18T02:45:16.281Z,1029.25
2018-02-18T02:46:16.287Z,1029.26
2018-02-18T02:47:16.278Z,1029.28
2018-02-18T02:48:16.261Z,1029.31
2018-02-18T02:49:16.135Z,1029.26
2018-02-18T02:50:16.270Z,1029.28
2018-02-18T02:51:16.280Z,1029.26
2018-02-18T02:52:16.498Z,1029.29
2018-02-18T02:53:16.295Z,1029.27
2018-02-18T02:54:16.265Z,1029.31
2018-02-18T02:55:16.265Z,1029.29
2018-02-18T02:56:16.272Z,1029.3
2018-02-18T02:57:16.274Z,1029.26
2018-02-18T02:58:16.323Z,1029.26
2018-02-18T02:59:16.254Z,1029.26
2018-02-18T03:00:16.307Z,1029.23
2018-02-18T03:01:16.264Z,1029.24
2018-02-18T03:02:16.296Z,1029.22
2018-02-18T03:03:16.629Z,1029.23
2018-02-18T03:04:16.260Z,1029.26
2018-02-18T03:05:16.253Z,1029.22
2018-02-18T03:06:16.247Z,1029.23
2018-02-18T03:07:16.259Z,1029.25
2018-02-18T03:08:16.269Z,1029.22
2018-02-18T03:09:16.259Z,1029.18
2018-02-18T03:10:16.248Z,1029.19
2018-02-18T03:11:16.260Z,1029.22
2018-02-18T03:12:16.265Z,1029.24
2018-02-18T03:13:16.275Z,1029.19
2018-02-18T03:14:16.263Z,1029.2
2018-02-18T03:15:16.250Z,1029.21
2018-02-18T03:16:16.264Z,1029.18
2018-02-18T03:17:16.260Z,1029.22
2018-02-18T03:18:16.279Z,1029.21
2018-02-18T03:19:16.264Z,1029.27
2018-02-18T03:20:16.272Z,1029.29
2018-02-18T03:21:16.385Z,1029.27
2018-02-18T03:22:16.260Z,1029.29
2018-02-18T03:23:16.274Z,1029.33
2018-02-18T03:24:16.246Z,1029.35
2018-02-18T03:25:16.272Z,1029.33
2018-02-18T03:26:16.251Z,1029.34
2018-02-18T03:27:16.243Z,1029.34
2018-02-18T03:28:16.266Z,1029.32
2018-02-18T03:29:16.264Z,1029.32
2018-02-18T03:30:16.223Z,1029.33
2018-02-18T03:31:16.258Z,1029.32
2018-02-18T03:32:16.258Z,1029.34
2018-02-18T03:33:16.275Z,1029.33
2018-02-18T03:34:16.277Z,1029.34
2018-02-18T03:35:16.245Z,1029.35
2018-02-18T03:36:16.249Z,1029.35
2018-02-18T03:37:16.276Z,1029.39
2018-02-18T03:38:16.274Z,1029.36
2018-02-18T03:39:16.272Z,1029.42
2018-02-18T03:40:16.263Z,1029.37
2018-02-18T03:41:16.245Z,1029.38
2018-02-18T03:42:16.255Z,1029.4
2018-02-18T03:43:16.242Z,1029.42
2018-02-18T03:44:16.257Z,1029.42
2018-02-18T03:45:16.324Z,1029.41
2018-02-18T03:46:16.256Z,1029.38
2018-02-18T03:47:16.255Z,1029.41
2018-02-18T03:48:16.243Z,1029.39
2018-02-18T03:49:16.244Z,1029.39
2018-02-18T03:50:16.276Z,1029.36
2018-02-18T03:51:16.238Z,1029.36
2018-02-18T03:52:16.241Z,1029.38
2018-02-18T03:53:16.256Z,1029.36
2018-02-18T03:54:16.243Z,1029.38
2018-02-18T03:55:16.247Z,1029.4
2018-02-18T03:56:16.256Z,1029.35
2018-02-18T03:57:16.244Z,1029.39
2018-02-18T03:58:16.252Z,1029.39
2018-02-18T03:59:16.244Z,1029.38
2018-02-18T04:00:16.248Z,1029.38
2018-02-18T04:01:16.265Z,1029.4
2018-02-18T04:02:16.267Z,1029.43
2018-02-18T04:03:16.236Z,1029.43
2018-02-18T04:04:16.243Z,1029.4
2018-02-18T04:05:16.240Z,1029.44
2018-02-18T04:06:16.240Z,1029.44
2018-02-18T04:07:16.256Z,1029.44
2018-02-18T04:08:16.243Z,1029.5
2018-02-18T04:09:16.244Z,1029.46
2018-02-18T04:10:16.250Z,1029.47
2018-02-18T04:11:16.250Z,1029.47
2018-02-18T04:12:16.236Z,1029.5
2018-02-18T04:13:16.230Z,1029.51
2018-02-18T04:14:16.278Z,1029.51
2018-02-18T04:15:16.327Z,1029.48
2018-02-18T04:16:16.251Z,1029.48
2018-02-18T04:17:16.230Z,1029.52
2018-02-18T04:18:16.239Z,1029.53
2018-02-18T04:19:16.242Z,1029.6
2018-02-18T04:20:16.241Z,1029.61
2018-02-18T04:21:16.247Z,1029.62
2018-02-18T04:22:16.250Z,1029.66
2018-02-18T04:23:16.230Z,1029.71
2018-02-18T04:24:16.233Z,1029.68
2018-02-18T04:25:16.232Z,1029.72
2018-02-18T04:26:16.258Z,1029.72
2018-02-18T04:27:16.258Z,1029.71
2018-02-18T04:28:16.233Z,1029.77
2018-02-18T04:29:16.246Z,1029.77
2018-02-18T04:30:16.236Z,1029.73
2018-02-18T04:31:16.278Z,1029.76
2018-02-18T04:32:16.261Z,1029.76
2018-02-18T04:33:16.241Z,1029.77
2018-02-18T04:34:16.221Z,1029.78
2018-02-18T04:35:16.233Z,1029.76
2018-02-18T04:36:16.221Z,1029.73
2018-02-18T04:37:16.282Z,1029.72
2018-02-18T04:38:16.237Z,1029.71
2018-02-18T04:39:16.227Z,1029.75
2018-02-18T04:40:16.228Z,1029.76
2018-02-18T04:41:16.250Z,1029.72
2018-02-18T04:42:16.245Z,1029.76
2018-02-18T04:43:16.238Z,1029.72
2018-02-18T04:44:16.225Z,1029.74
2018-02-18T04:45:16.258Z,1029.71
2018-02-18T04:46:16.226Z,1029.7
2018-02-18T04:47:16.237Z,1029.73
2018-02-18T04:48:16.357Z,1029.67
2018-02-18T04:49:16.223Z,1029.68
2018-02-18T04:50:16.238Z,1029.65
2018-02-18T04:51:16.248Z,1029.63
2018-02-18T04:52:16.234Z,1029.68
2018-02-18T04:53:16.245Z,1029.67
2018-02-18T04:54:16.249Z,1029.67
2018-02-18T04:55:16.209Z,1029.66
2018-02-18T04:56:16.235Z,1029.65
2018-02-18T04:57:16.224Z,1029.65
2018-02-18T04:58:16.223Z,1029.64
2018-02-18T04:59:16.252Z,1029.65
2018-02-18T05:00:16.220Z,1029.64
2018-02-18T05:01:16.231Z,1029.63
2018-02-18T05:02:16.213Z,1029.61
2018-02-18T05:03:16.256Z,1029.61
2018-02-18T05:04:16.240Z,1029.63
2018-02-18T05:05:16.243Z,1029.63
2018-02-18T05:06:16.224Z,1029.66
2018-02-18T05:07:16.253Z,1029.65
2018-02-18T05:08:16.215Z,1029.68
2018-02-18T05:09:16.214Z,1029.69
2018-02-18T05:10:16.225Z,1029.72
2018-02-18T05:11:16.244Z,1029.7
2018-02-18T05:12:16.207Z,1029.69
2018-02-18T05:13:16.212Z,1029.68
2018-02-18T05:14:16.237Z,1029.69
2018-02-18T05:15:16.266Z,1029.7
2018-02-18T05:16:16.214Z,1029.69
2018-02-18T05:17:16.209Z,1029.69
2018-02-18T05:18:16.229Z,1029.7
2018-02-18T05:19:16.210Z,1029.72
2018-02-18T05:20:16.213Z,1029.75
2018-02-18T05:21:16.237Z,1029.74
2018-02-18T05:22:16.308Z,1029.75
2018-02-18T05:23:16.219Z,1029.74
2018-02-18T05:24:16.216Z,1029.75
2018-02-18T05:25:16.216Z,1029.74
2018-02-18T05:26:16.315Z,1029.74
2018-02-18T05:27:16.213Z,1029.77
2018-02-18T05:28:16.217Z,1029.77
2018-02-18T05:29:16.215Z,1029.76
2018-02-18T05:30:16.204Z,1029.82
2018-02-18T05:31:16.232Z,1029.84
2018-02-18T05:32:16.222Z,1029.87
2018-02-18T05:33:16.209Z,1029.9
2018-02-18T05:34:16.222Z,1029.89
2018-02-18T05:35:16.210Z,1029.87
2018-02-18T05:36:16.228Z,1029.9
2018-02-18T05:37:16.215Z,1029.88
2018-02-18T05:38:16.214Z,1029.9
2018-02-18T05:39:16.224Z,1029.94
2018-02-18T05:40:16.208Z,1029.88
2018-02-18T05:41:16.239Z,1029.93
2018-02-18T05:42:16.473Z,1029.93
2018-02-18T05:43:16.212Z,1029.97
2018-02-18T05:44:16.212Z,1029.97
2018-02-18T05:45:16.206Z,1029.99
2018-02-18T05:46:16.210Z,1029.98
2018-02-18T05:47:16.219Z,1030.04
2018-02-18T05:48:16.208Z,1030.03
2018-02-18T05:49:16.193Z,1030.07
2018-02-18T05:50:16.199Z,1030.06
2018-02-18T05:51:16.234Z,1030.05
2018-02-18T05:52:16.248Z,1030.11
2018-02-18T05:53:16.196Z,1030.08
2018-02-18T05:54:16.215Z,1030.13
2018-02-18T05:55:16.203Z,1030.13
2018-02-18T05:56:16.212Z,1030.16
2018-02-18T05:57:16.235Z,1030.14
2018-02-18T05:58:16.194Z,1030.17
2018-02-18T05:59:16.206Z,1030.15
2018-02-18T06:00:16.211Z,1030.19
2018-02-18T06:01:16.212Z,1030.2
2018-02-18T06:02:16.216Z,1030.23
2018-02-18T06:03:16.206Z,1030.21
2018-02-18T06:04:16.202Z,1030.23
2018-02-18T06:05:16.199Z,1030.26
2018-02-18T06:06:16.210Z,1030.27
2018-02-18T06:07:16.228Z,1030.26
2018-02-18T06:08:16.219Z,1030.29
2018-02-18T06:09:16.211Z,1030.27
2018-02-18T06:10:16.190Z,1030.27
2018-02-18T06:11:16.195Z,1030.3
2018-02-18T06:12:16.252Z,1030.28
2018-02-18T06:13:16.190Z,1030.27
2018-02-18T06:14:16.199Z,1030.24
2018-02-18T06:15:16.247Z,1030.27
2018-02-18T06:16:16.201Z,1030.23
2018-02-18T06:17:16.234Z,1030.21
2018-02-18T06:18:16.196Z,1030.21
2018-02-18T06:19:16.211Z,1030.19
2018-02-18T06:20:16.219Z,1030.25
2018-02-18T06:21:16.205Z,1030.2
2018-02-18T06:22:16.219Z,1030.23
2018-02-18T06:23:16.197Z,1030.22
2018-02-18T06:24:16.187Z,1030.28
2018-02-18T06:25:16.220Z,1030.27
2018-02-18T06:26:16.201Z,1030.28
2018-02-18T06:27:16.201Z,1030.29
2018-02-18T06:28:16.188Z,1030.27
2018-02-18T06:29:16.170Z,1030.32
2018-02-18T06:30:16.211Z,1030.32
2018-02-18T06:31:16.193Z,1030.3
2018-02-18T06:32:16.204Z,1030.34
2018-02-18T06:33:16.218Z,1030.28
2018-02-18T06:34:16.377Z,1030.32
2018-02-18T06:35:16.195Z,1030.33
2018-02-18T06:36:16.223Z,1030.34
2018-02-18T06:37:16.237Z,1030.33
2018-02-18T06:38:16.382Z,1030.33
2018-02-18T06:39:16.216Z,1030.33
2018-02-18T06:40:16.184Z,1030.36
2018-02-18T06:41:16.215Z,1030.33
2018-02-18T06:42:16.193Z,1030.29
2018-02-18T06:43:16.192Z,1030.34
2018-02-18T06:44:16.264Z,1030.32
2018-02-18T06:45:16.193Z,1030.29
2018-02-18T06:46:16.190Z,1030.31
2018-02-18T06:47:16.205Z,1030.26
2018-02-18T06:48:16.180Z,1030.24
2018-02-18T06:49:16.207Z,1030.22
2018-02-18T06:50:16.174Z,1030.2
2018-02-18T06:51:16.191Z,1030.21
2018-02-18T06:52:16.204Z,1030.18
2018-02-18T06:53:16.176Z,1030.17
2018-02-18T06:54:16.215Z,1030.19
2018-02-18T06:55:16.189Z,1030.14
2018-02-18T06:56:16.181Z,1030.14
2018-02-18T06:57:16.320Z,1030.11
2018-02-18T06:58:16.194Z,1030.16
2018-02-18T06:59:16.142Z,1030.14
2018-02-18T07:00:16.205Z,1030.15
2018-02-18T07:01:16.175Z,1030.14
2018-02-18T07:02:16.216Z,1030.13
2018-02-18T07:03:16.188Z,1030.16
2018-02-18T07:04:16.178Z,1030.2
2018-02-18T07:05:16.207Z,1030.2
2018-02-18T07:06:16.174Z,1030.19
2018-02-18T07:07:16.214Z,1030.26
2018-02-18T07:08:16.179Z,1030.23
2018-02-18T07:09:16.171Z,1030.27
2018-02-18T07:10:16.189Z,1030.24
2018-02-18T07:11:16.178Z,1030.23
2018-02-18T07:12:16.204Z,1030.22
2018-02-18T07:13:16.180Z,1030.25
2018-02-18T07:14:16.199Z,1030.25
2018-02-18T07:15:16.173Z,1030.29
2018-02-18T07:16:16.183Z,1030.27
2018-02-18T07:17:16.301Z,1030.35
2018-02-18T07:18:16.194Z,1030.36
2018-02-18T07:19:16.214Z,1030.3
2018-02-18T07:20:16.198Z,1030.32
2018-02-18T07:21:16.191Z,1030.33
2018-02-18T07:22:16.171Z,1030.36
2018-02-18T07:23:16.295Z,1030.35
2018-02-18T07:24:16.171Z,1030.35
2018-02-18T07:25:16.273Z,1030.35
2018-02-18T07:26:16.192Z,1030.4
2018-02-18T07:27:16.161Z,1030.4
2018-02-18T07:28:16.203Z,1030.39
2018-02-18T07:29:16.154Z,1030.36
2018-02-18T07:30:16.174Z,1030.37
2018-02-18T07:31:16.181Z,1030.37
2018-02-18T07:32:16.177Z,1030.32
2018-02-18T07:33:16.296Z,1030.33
2018-02-18T07:34:16.200Z,1030.31
2018-02-18T07:35:16.181Z,1030.26
2018-02-18T07:36:16.180Z,1030.26
2018-02-18T07:37:16.194Z,1030.22
2018-02-18T07:38:16.167Z,1030.23
2018-02-18T07:39:16.167Z,1030.22
2018-02-18T07:40:16.170Z,1030.25
2018-02-18T07:41:16.271Z,1030.22
2018-02-18T07:42:16.183Z,1030.23
2018-02-18T07:43:16.217Z,1030.25
2018-02-18T07:44:16.160Z,1030.27
2018-02-18T07:45:16.173Z,1030.25
2018-02-18T07:46:16.159Z,1030.26
2018-02-18T07:47:16.196Z,1030.26
2018-02-18T07:48:16.230Z,1030.28
2018-02-18T07:49:16.221Z,1030.26
2018-02-18T07:50:16.167Z,1030.32
2018-02-18T07:51:16.158Z,1030.31
2018-02-18T07:52:16.156Z,1030.36
2018-02-18T07:53:16.286Z,1030.33
2018-02-18T07:54:16.153Z,1030.31
2018-02-18T07:55:16.166Z,1030.32
2018-02-18T07:56:16.162Z,1030.31
2018-02-18T07:57:16.204Z,1030.28
2018-02-18T07:58:16.182Z,1030.27
2018-02-18T07:59:16.173Z,1030.27
2018-02-18T08:00:16.166Z,1030.26
2018-02-18T08:01:16.162Z,1030.26
2018-02-18T08:02:16.164Z,1030.3
2018-02-18T08:03:16.178Z,1030.28
2018-02-18T08:04:16.425Z,1030.34
2018-02-18T08:05:16.150Z,1030.32
2018-02-18T08:06:16.269Z,1030.35
2018-02-18T08:07:16.163Z,1030.31
2018-02-18T08:08:16.163Z,1030.32
2018-02-18T08:09:16.181Z,1030.31
2018-02-18T08:10:16.170Z,1030.32
2018-02-18T08:11:16.151Z,1030.3
2018-02-18T08:12:16.170Z,1030.31
2018-02-18T08:13:16.162Z,1030.32
2018-02-18T08:14:16.185Z,1030.31
2018-02-18T08:15:16.167Z,1030.25
2018-02-18T08:16:16.182Z,1030.29
2018-02-18T08:17:16.164Z,1030.32
2018-02-18T08:18:16.156Z,1030.29
2018-02-18T08:19:16.161Z,1030.32
2018-02-18T08:20:16.154Z,1030.34
2018-02-18T08:21:16.147Z,1030.32
2018-02-18T08:22:16.155Z,1030.32
2018-02-18T08:23:16.147Z,1030.32
2018-02-18T08:24:16.193Z,1030.34
2018-02-18T08:25:16.159Z,1030.35
2018-02-18T08:26:16.153Z,1030.35
2018-02-18T08:27:16.120Z,1030.35
2018-02-18T08:28:16.139Z,1030.39
2018-02-18T08:29:16.414Z,1030.35
2018-02-18T08:30:16.149Z,1030.35
2018-02-18T08:31:16.156Z,1030.38
2018-02-18T08:32:16.187Z,1030.35
2018-02-18T08:33:16.157Z,1030.31
2018-02-18T08:34:16.193Z,1030.37
2018-02-18T08:35:16.180Z,1030.35
2018-02-18T08:36:16.139Z,1030.35
2018-02-18T08:37:16.227Z,1030.32
2018-02-18T08:38:16.150Z,1030.32
2018-02-18T08:39:16.171Z,1030.29
2018-02-18T08:40:16.153Z,1030.28
2018-02-18T08:41:16.182Z,1030.26
2018-02-18T08:42:16.135Z,1030.29
2018-02-18T08:43:16.177Z,1030.28
2018-02-18T08:44:16.204Z,1030.24
2018-02-18T08:45:16.218Z,1030.22
2018-02-18T08:46:16.155Z,1030.22
2018-02-18T08:47:16.141Z,1030.2
2018-02-18T08:48:16.149Z,1030.19
2018-02-18T08:49:16.169Z,1030.21
2018-02-18T08:50:16.141Z,1030.19
2018-02-18T08:51:16.149Z,1030.18
2018-02-18T08:52:16.148Z,1030.23
2018-02-18T08:53:16.168Z,1030.23
2018-02-18T08:54:16.175Z,1030.21
2018-02-18T08:55:16.160Z,1030.2
2018-02-18T08:56:16.208Z,1030.26
2018-02-18T08:57:16.163Z,1030.26
2018-02-18T08:58:16.226Z,1030.26
2018-02-18T08:59:16.181Z,1030.26
2018-02-18T09:00:16.171Z,1030.23
2018-02-18T09:01:16.150Z,1030.23
2018-02-18T09:02:16.150Z,1030.22
2018-02-18T09:03:16.152Z,1030.2
2018-02-18T09:04:16.225Z,1030.23
2018-02-18T09:05:16.153Z,1030.21
2018-02-18T09:06:16.317Z,1030.25
2018-02-18T09:07:16.165Z,1030.24
2018-02-18T09:08:16.216Z,1030.21
2018-02-18T09:09:16.218Z,1030.21
2018-02-18T09:10:16.239Z,1030.26
2018-02-18T09:11:16.227Z,1030.26
2018-02-18T09:12:16.151Z,1030.26
2018-02-18T09:13:16.161Z,1030.3
2018-02-18T09:14:16.197Z,1030.3
2018-02-18T09:15:16.234Z,1030.32
2018-02-18T09:16:16.227Z,1030.3
2018-02-18T09:17:16.248Z,1030.35
2018-02-18T09:18:16.171Z,1030.38
2018-02-18T09:19:16.188Z,1030.38
2018-02-18T09:20:16.195Z,1030.37
2018-02-18T09:21:16.210Z,1030.37
2018-02-18T09:22:16.160Z,1030.36
2018-02-18T09:23:16.228Z,1030.39
2018-02-18T09:24:16.364Z,1030.36
2018-02-18T09:25:16.141Z,1030.36
2018-02-18T09:26:16.143Z,1030.42
2018-02-18T09:27:16.237Z,1030.39
2018-02-18T09:28:16.230Z,1030.36
2018-02-18T09:29:16.173Z,1030.35
2018-02-18T09:30:16.162Z,1030.43
2018-02-18T09:31:16.175Z,1030.38
2018-02-18T09:32:16.201Z,1030.39
2018-02-18T09:33:16.172Z,1030.39
2018-02-18T09:34:16.127Z,1030.39
2018-02-18T09:35:16.146Z,1030.37
2018-02-18T09:36:16.155Z,1030.38
2018-02-18T09:37:16.181Z,1030.41
2018-02-18T09:38:16.188Z,1030.42
2018-02-18T09:39:16.162Z,1030.38
2018-02-18T09:40:16.128Z,1030.41
2018-02-18T09:41:16.128Z,1030.37
2018-02-18T09:42:16.126Z,1030.35
2018-02-18T09:43:16.139Z,1030.36
2018-02-18T09:44:16.176Z,1030.33
2018-02-18T09:45:16.135Z,1030.3
2018-02-18T09:46:16.131Z,1030.26
2018-02-18T09:47:16.124Z,1030.27
2018-02-18T09:48:16.127Z,1030.23
2018-02-18T09:49:16.510Z,1030.23
2018-02-18T09:50:16.139Z,1030.21
2018-02-18T09:51:16.159Z,1030.21
2018-02-18T09:52:16.317Z,1030.17
2018-02-18T09:53:16.135Z,1030.14
2018-02-18T09:54:16.157Z,1030.13
2018-02-18T09:55:16.136Z,1030.14
2018-02-18T09:56:16.130Z,1030.15
2018-02-18T09:57:16.124Z,1030.07
2018-02-18T09:58:16.137Z,1030.13
2018-02-18T09:59:16.158Z,1030.09
2018-02-18T10:00:16.152Z,1030.12
2018-02-18T10:01:16.141Z,1030.07
2018-02-18T10:02:16.183Z,1030.12
2018-02-18T10:03:16.160Z,1030.07
2018-02-18T10:04:16.153Z,1030.1
2018-02-18T10:05:16.149Z,1030.08
2018-02-18T10:06:16.174Z,1030.07
2018-02-18T10:07:16.191Z,1030.09
2018-02-18T10:08:16.148Z,1030.08
2018-02-18T10:09:16.121Z,1030.06
2018-02-18T10:10:16.119Z,1030.08
2018-02-18T10:11:16.155Z,1030.04
2018-02-18T10:12:16.179Z,1030.11
2018-02-18T10:13:16.134Z,1030.1
2018-02-18T10:14:16.325Z,1030.11
2018-02-18T10:15:16.136Z,1030.14
2018-02-18T10:16:16.145Z,1030.17
2018-02-18T10:17:16.148Z,1030.17
2018-02-18T10:18:16.177Z,1030.18
2018-02-18T10:19:16.139Z,1030.16
2018-02-18T10:20:16.169Z,1030.17
2018-02-18T10:21:16.153Z,1030.17
2018-02-18T10:22:16.168Z,1030.15
2018-02-18T10:23:16.163Z,1030.15
2018-02-18T10:24:16.528Z,1030.18
2018-02-18T10:25:16.336Z,1030.19
2018-02-18T10:26:16.352Z,1030.19
2018-02-18T10:27:16.206Z,1030.23
2018-02-18T10:28:16.142Z,1030.24
2018-02-18T10:29:16.134Z,1030.26
2018-02-18T10:30:16.105Z,1030.28
2018-02-18T10:31:16.118Z,1030.26
2018-02-18T10:32:16.220Z,1030.3
2018-02-18T10:33:16.138Z,1030.31
2018-02-18T10:34:16.161Z,1030.35
2018-02-18T10:35:16.106Z,1030.33
2018-02-18T10:36:16.186Z,1030.35
2018-02-18T10:37:16.191Z,1030.32
2018-02-18T10:38:16.131Z,1030.31
2018-02-18T10:39:16.131Z,1030.29
2018-02-18T10:40:16.301Z,1030.34
2018-02-18T10:41:16.114Z,1030.33
2018-02-18T10:42:16.129Z,1030.34
2018-02-18T10:43:16.085Z,1030.31
2018-02-18T10:44:16.111Z,1030.31
2018-02-18T10:45:16.160Z,1030.32
2018-02-18T10:46:16.111Z,1030.26
2018-02-18T10:47:16.122Z,1030.23
2018-02-18T10:48:16.184Z,1030.22
2018-02-18T10:49:16.103Z,1030.18
2018-02-18T10:50:16.114Z,1030.21
2018-02-18T10:51:16.146Z,1030.19
2018-02-18T10:52:16.106Z,1030.15
2018-02-18T10:53:16.129Z,1030.16
2018-02-18T10:54:16.212Z,1030.15
2018-02-18T10:55:16.112Z,1030.13
2018-02-18T10:56:16.145Z,1030.13
2018-02-18T10:57:16.118Z,1030.11
2018-02-18T10:58:16.380Z,1030.11
2018-02-18T10:59:16.090Z,1030.11
2018-02-18T11:00:16.110Z,1030.11
2018-02-18T11:01:16.100Z,1030.13
2018-02-18T11:02:16.109Z,1030.06
2018-02-18T11:03:16.159Z,1030.08
2018-02-18T11:04:16.098Z,1030.06
2018-02-18T11:05:16.113Z,1030.05
2018-02-18T11:06:16.098Z,1030.07
2018-02-18T11:07:16.118Z,1030.07
2018-02-18T11:08:16.127Z,1030.07
2018-02-18T11:09:16.097Z,1030.1
2018-02-18T11:10:16.104Z,1030.09
2018-02-18T11:11:16.110Z,1030.09
2018-02-18T11:12:16.108Z,1030.09
2018-02-18T11:13:16.131Z,1030.12
2018-02-18T11:14:16.102Z,1030.11
2018-02-18T11:15:16.099Z,1030.1
2018-02-18T11:16:16.055Z,1030.11
2018-02-18T11:17:16.106Z,1030.09
2018-02-18T11:18:16.197Z,1030.09
2018-02-18T11:19:16.104Z,1030.07
2018-02-18T11:20:16.093Z,1030.09
2018-02-18T11:21:16.139Z,1030.07
2018-02-18T11:22:16.104Z,1030.04
2018-02-18T11:23:16.126Z,1030.06
2018-02-18T11:24:16.313Z,1030.01
2018-02-18T11:25:16.110Z,1030.04
2018-02-18T11:26:16.105Z,1030
2018-02-18T11:27:16.104Z,1029.97
2018-02-18T11:28:16.105Z,1029.94
2018-02-18T11:29:16.108Z,1029.9
2018-02-18T11:30:16.200Z,1029.92
2018-02-18T11:31:16.153Z,1029.88
2018-02-18T11:32:16.094Z,1029.9
2018-02-18T11:33:16.143Z,1029.92
2018-02-18T11:34:16.113Z,1029.91
2018-02-18T11:35:16.118Z,1029.92
2018-02-18T11:36:16.209Z,1029.91
2018-02-18T11:37:16.104Z,1029.89
2018-02-18T11:38:16.053Z,1029.87
2018-02-18T11:39:16.096Z,1029.91
2018-02-18T11:40:16.142Z,1029.87
2018-02-18T11:41:16.120Z,1029.84
2018-02-18T11:42:16.088Z,1029.84
2018-02-18T11:43:16.085Z,1029.78
2018-02-18T11:44:16.095Z,1029.77
2018-02-18T11:45:16.139Z,1029.75
2018-02-18T11:46:16.116Z,1029.77
2018-02-18T11:47:16.111Z,1029.74
2018-02-18T11:48:16.122Z,1029.75
2018-02-18T11:49:16.087Z,1029.73
2018-02-18T11:50:16.097Z,1029.73
2018-02-18T11:51:16.113Z,1029.68
2018-02-18T11:52:16.186Z,1029.73
2018-02-18T11:53:16.081Z,1029.7
2018-02-18T11:54:16.378Z,1029.69
2018-02-18T11:55:16.092Z,1029.73
2018-02-18T11:56:16.089Z,1029.74
2018-02-18T11:57:16.115Z,1029.72
2018-02-18T11:58:16.086Z,1029.75
2018-02-18T11:59:16.140Z,1029.73
2018-02-18T12:00:16.088Z,1029.71
2018-02-18T12:01:16.090Z,1029.72
2018-02-18T12:02:16.101Z,1029.74
2018-02-18T12:03:16.097Z,1029.73
2018-02-18T12:04:16.104Z,1029.7
2018-02-18T12:05:16.073Z,1029.69
2018-02-18T12:06:16.114Z,1029.69
2018-02-18T12:07:16.075Z,1029.68